sensor_id;sensor_type;location;lat;lon;timestamp;P1;durP1;ratioP1;P2;durP2;ratioP2
71646;SDS011;59706;45.634;11.704;2023-05-07T00:00:37;12.00;;;7.40;;
71646;SDS011;59706;45.634;11.704;2023-05-07T00:03:04;12.60;;;8.20;;
71646;SDS011;59706;45.634;11.704;2023-05-07T00:05:31;13.30;;;8.20;;
71646;SDS011;59706;45.634;11.704;2023-05-07T00:07:59;12.50;;;8.40;;
71646;SDS011;59706;45.634;11.704;2023-05-07T00:10:27;13.50;;;8.20;;
71646;SDS011;59706;45.634;11.704;2023-05-07T00:12:54;14.40;;;8.10;;
71646;SDS011;59706;45.634;11.704;2023-05-07T00:15:22;14.30;;;8.50;;
71646;SDS011;59706;45.634;11.704;2023-05-07T00:17:49;15.00;;;8.30;;
71646;SDS011;59706;45.634;11.704;2023-05-07T00:20:17;12.50;;;7.50;;
71646;SDS011;59706;45.634;11.704;2023-05-07T00:22:44;10.90;;;7.00;;
71646;SDS011;59706;45.634;11.704;2023-05-07T00:25:12;13.00;;;7.90;;
71646;SDS011;59706;45.634;11.704;2023-05-07T00:27:39;13.60;;;8.10;;
71646;SDS011;59706;45.634;11.704;2023-05-07T00:30:09;11.10;;;7.30;;
71646;SDS011;59706;45.634;11.704;2023-05-07T00:32:38;12.30;;;8.00;;
71646;SDS011;59706;45.634;11.704;2023-05-07T00:35:08;12.40;;;7.60;;
71646;SDS011;59706;45.634;11.704;2023-05-07T00:37:36;15.00;;;8.30;;
71646;SDS011;59706;45.634;11.704;2023-05-07T00:40:03;12.30;;;8.30;;
71646;SDS011;59706;45.634;11.704;2023-05-07T00:42:33;14.20;;;9.10;;
71646;SDS011;59706;45.634;11.704;2023-05-07T00:45:01;14.90;;;8.60;;
71646;SDS011;59706;45.634;11.704;2023-05-07T00:47:31;16.90;;;9.60;;
71646;SDS011;59706;45.634;11.704;2023-05-07T00:49:58;15.10;;;9.60;;
71646;SDS011;59706;45.634;11.704;2023-05-07T00:52:26;13.40;;;8.60;;
71646;SDS011;59706;45.634;11.704;2023-05-07T00:54:54;17.20;;;9.90;;
71646;SDS011;59706;45.634;11.704;2023-05-07T00:57:21;14.10;;;9.80;;
71646;SDS011;59706;45.634;11.704;2023-05-07T00:59:51;14.70;;;9.60;;
71646;SDS011;59706;45.634;11.704;2023-05-07T01:02:19;14.30;;;9.20;;
71646;SDS011;59706;45.634;11.704;2023-05-07T01:04:46;16.20;;;8.80;;
71646;SDS011;59706;45.634;11.704;2023-05-07T01:07:14;13.30;;;8.90;;
71646;SDS011;59706;45.634;11.704;2023-05-07T01:09:42;15.10;;;9.10;;
71646;SDS011;59706;45.634;11.704;2023-05-07T01:12:10;15.30;;;9.70;;
71646;SDS011;59706;45.634;11.704;2023-05-07T01:14:38;14.20;;;9.80;;
71646;SDS011;59706;45.634;11.704;2023-05-07T01:17:04;15.60;;;10.20;;
71646;SDS011;59706;45.634;11.704;2023-05-07T01:19:32;15.10;;;9.90;;
71646;SDS011;59706;45.634;11.704;2023-05-07T01:22:03;16.10;;;10.40;;
71646;SDS011;59706;45.634;11.704;2023-05-07T01:24:35;15.50;;;9.60;;
71646;SDS011;59706;45.634;11.704;2023-05-07T01:27:03;16.10;;;10.00;;
71646;SDS011;59706;45.634;11.704;2023-05-07T01:29:31;15.70;;;9.80;;
71646;SDS011;59706;45.634;11.704;2023-05-07T01:31:59;16.40;;;10.20;;
71646;SDS011;59706;45.634;11.704;2023-05-07T01:34:31;14.20;;;9.40;;
71646;SDS011;59706;45.634;11.704;2023-05-07T01:36:59;19.30;;;11.00;;
71646;SDS011;59706;45.634;11.704;2023-05-07T01:39:29;16.60;;;10.80;;
71646;SDS011;59706;45.634;11.704;2023-05-07T01:41:57;16.60;;;10.90;;
71646;SDS011;59706;45.634;11.704;2023-05-07T01:44:26;15.00;;;10.50;;
71646;SDS011;59706;45.634;11.704;2023-05-07T01:46:53;16.70;;;11.20;;
71646;SDS011;59706;45.634;11.704;2023-05-07T01:49:21;16.70;;;10.20;;
71646;SDS011;59706;45.634;11.704;2023-05-07T01:51:48;16.30;;;10.40;;
71646;SDS011;59706;45.634;11.704;2023-05-07T01:54:16;13.90;;;9.80;;
71646;SDS011;59706;45.634;11.704;2023-05-07T01:56:44;19.20;;;10.80;;
71646;SDS011;59706;45.634;11.704;2023-05-07T01:59:13;17.60;;;10.60;;
71646;SDS011;59706;45.634;11.704;2023-05-07T02:01:40;16.20;;;10.10;;
71646;SDS011;59706;45.634;11.704;2023-05-07T02:04:08;17.00;;;10.10;;
71646;SDS011;59706;45.634;11.704;2023-05-07T02:06:36;15.30;;;9.80;;
71646;SDS011;59706;45.634;11.704;2023-05-07T02:09:04;16.20;;;10.50;;
71646;SDS011;59706;45.634;11.704;2023-05-07T02:11:32;16.90;;;11.00;;
71646;SDS011;59706;45.634;11.704;2023-05-07T02:13:59;15.50;;;10.90;;
71646;SDS011;59706;45.634;11.704;2023-05-07T02:16:27;17.30;;;10.90;;
71646;SDS011;59706;45.634;11.704;2023-05-07T02:18:55;16.60;;;11.50;;
71646;SDS011;59706;45.634;11.704;2023-05-07T02:21:22;18.20;;;11.50;;
71646;SDS011;59706;45.634;11.704;2023-05-07T02:23:49;18.90;;;11.70;;
71646;SDS011;59706;45.634;11.704;2023-05-07T02:26:17;15.80;;;9.80;;
71646;SDS011;59706;45.634;11.704;2023-05-07T02:28:44;19.20;;;10.00;;
71646;SDS011;59706;45.634;11.704;2023-05-07T02:31:12;14.30;;;9.90;;
71646;SDS011;59706;45.634;11.704;2023-05-07T02:33:40;15.90;;;9.70;;
71646;SDS011;59706;45.634;11.704;2023-05-07T02:36:10;15.50;;;9.60;;
71646;SDS011;59706;45.634;11.704;2023-05-07T02:38:38;17.20;;;9.80;;
71646;SDS011;59706;45.634;11.704;2023-05-07T02:41:05;16.40;;;9.40;;
71646;SDS011;59706;45.634;11.704;2023-05-07T02:43:32;16.00;;;9.80;;
71646;SDS011;59706;45.634;11.704;2023-05-07T02:46:07;16.50;;;10.40;;
71646;SDS011;59706;45.634;11.704;2023-05-07T02:48:34;17.70;;;10.50;;
71646;SDS011;59706;45.634;11.704;2023-05-07T02:51:04;16.50;;;10.50;;
71646;SDS011;59706;45.634;11.704;2023-05-07T02:53:31;19.80;;;11.90;;
71646;SDS011;59706;45.634;11.704;2023-05-07T02:56:01;17.80;;;11.20;;
71646;SDS011;59706;45.634;11.704;2023-05-07T02:58:28;16.50;;;10.90;;
71646;SDS011;59706;45.634;11.704;2023-05-07T03:00:55;18.30;;;11.80;;
71646;SDS011;59706;45.634;11.704;2023-05-07T03:03:23;16.30;;;10.50;;
71646;SDS011;59706;45.634;11.704;2023-05-07T03:05:50;16.20;;;9.90;;
71646;SDS011;59706;45.634;11.704;2023-05-07T03:08:17;16.30;;;9.30;;
71646;SDS011;59706;45.634;11.704;2023-05-07T03:10:44;18.10;;;10.20;;
71646;SDS011;59706;45.634;11.704;2023-05-07T03:13:30;15.80;;;9.90;;
71646;SDS011;59706;45.634;11.704;2023-05-07T03:15:58;16.40;;;9.80;;
71646;SDS011;59706;45.634;11.704;2023-05-07T03:18:25;17.10;;;11.30;;
71646;SDS011;59706;45.634;11.704;2023-05-07T03:20:53;18.80;;;12.40;;
71646;SDS011;59706;45.634;11.704;2023-05-07T03:23:20;19.30;;;11.80;;
71646;SDS011;59706;45.634;11.704;2023-05-07T03:25:48;18.80;;;12.20;;
71646;SDS011;59706;45.634;11.704;2023-05-07T03:28:15;17.40;;;11.20;;
71646;SDS011;59706;45.634;11.704;2023-05-07T03:30:43;17.60;;;11.20;;
71646;SDS011;59706;45.634;11.704;2023-05-07T03:33:11;19.60;;;11.50;;
71646;SDS011;59706;45.634;11.704;2023-05-07T03:35:38;17.70;;;11.40;;
71646;SDS011;59706;45.634;11.704;2023-05-07T03:38:06;15.90;;;11.10;;
71646;SDS011;59706;45.634;11.704;2023-05-07T03:40:34;14.70;;;9.80;;
71646;SDS011;59706;45.634;11.704;2023-05-07T03:43:02;16.50;;;10.40;;
71646;SDS011;59706;45.634;11.704;2023-05-07T03:45:29;15.90;;;10.40;;
71646;SDS011;59706;45.634;11.704;2023-05-07T03:47:56;16.00;;;9.00;;
71646;SDS011;59706;45.634;11.704;2023-05-07T03:50:24;13.50;;;8.70;;
71646;SDS011;59706;45.634;11.704;2023-05-07T03:52:52;15.50;;;9.30;;
71646;SDS011;59706;45.634;11.704;2023-05-07T03:55:19;14.80;;;9.80;;
71646;SDS011;59706;45.634;11.704;2023-05-07T03:57:47;15.10;;;10.00;;
71646;SDS011;59706;45.634;11.704;2023-05-07T04:00:14;16.60;;;10.30;;
71646;SDS011;59706;45.634;11.704;2023-05-07T04:02:42;15.40;;;10.80;;
71646;SDS011;59706;45.634;11.704;2023-05-07T04:05:10;18.90;;;10.30;;
71646;SDS011;59706;45.634;11.704;2023-05-07T04:07:37;16.10;;;10.10;;
71646;SDS011;59706;45.634;11.704;2023-05-07T04:10:05;15.70;;;10.50;;
71646;SDS011;59706;45.634;11.704;2023-05-07T04:12:35;16.90;;;10.90;;
71646;SDS011;59706;45.634;11.704;2023-05-07T04:15:04;17.20;;;11.40;;
71646;SDS011;59706;45.634;11.704;2023-05-07T04:17:34;17.00;;;10.40;;
71646;SDS011;59706;45.634;11.704;2023-05-07T04:20:03;17.80;;;11.70;;
71646;SDS011;59706;45.634;11.704;2023-05-07T04:22:34;19.30;;;11.50;;
71646;SDS011;59706;45.634;11.704;2023-05-07T04:25:01;17.60;;;11.80;;
71646;SDS011;59706;45.634;11.704;2023-05-07T04:27:29;16.60;;;11.80;;
71646;SDS011;59706;45.634;11.704;2023-05-07T04:29:57;18.40;;;11.60;;
71646;SDS011;59706;45.634;11.704;2023-05-07T04:32:26;19.20;;;12.00;;
71646;SDS011;59706;45.634;11.704;2023-05-07T04:34:55;18.70;;;11.60;;
71646;SDS011;59706;45.634;11.704;2023-05-07T04:37:22;17.60;;;11.20;;
71646;SDS011;59706;45.634;11.704;2023-05-07T04:39:51;17.70;;;12.30;;
71646;SDS011;59706;45.634;11.704;2023-05-07T04:42:19;17.00;;;12.90;;
71646;SDS011;59706;45.634;11.704;2023-05-07T04:44:47;20.80;;;12.60;;
71646;SDS011;59706;45.634;11.704;2023-05-07T04:47:14;19.70;;;13.10;;
71646;SDS011;59706;45.634;11.704;2023-05-07T04:49:40;18.20;;;13.20;;
71646;SDS011;59706;45.634;11.704;2023-05-07T04:52:08;17.90;;;11.80;;
71646;SDS011;59706;45.634;11.704;2023-05-07T04:54:35;20.20;;;11.50;;
71646;SDS011;59706;45.634;11.704;2023-05-07T04:57:04;16.80;;;10.90;;
71646;SDS011;59706;45.634;11.704;2023-05-07T04:59:32;19.10;;;12.40;;
71646;SDS011;59706;45.634;11.704;2023-05-07T05:02:00;17.20;;;11.90;;
71646;SDS011;59706;45.634;11.704;2023-05-07T05:04:27;18.10;;;12.80;;
71646;SDS011;59706;45.634;11.704;2023-05-07T05:06:55;20.20;;;13.00;;
71646;SDS011;59706;45.634;11.704;2023-05-07T05:09:22;20.20;;;14.40;;
71646;SDS011;59706;45.634;11.704;2023-05-07T05:11:50;19.40;;;13.30;;
71646;SDS011;59706;45.634;11.704;2023-05-07T05:14:17;18.70;;;13.00;;
71646;SDS011;59706;45.634;11.704;2023-05-07T05:16:44;17.00;;;13.00;;
71646;SDS011;59706;45.634;11.704;2023-05-07T05:19:12;19.50;;;12.60;;
71646;SDS011;59706;45.634;11.704;2023-05-07T05:21:39;18.90;;;13.80;;
71646;SDS011;59706;45.634;11.704;2023-05-07T05:24:07;17.00;;;12.70;;
71646;SDS011;59706;45.634;11.704;2023-05-07T05:26:35;21.20;;;13.10;;
71646;SDS011;59706;45.634;11.704;2023-05-07T05:29:02;19.60;;;12.20;;
71646;SDS011;59706;45.634;11.704;2023-05-07T05:31:29;17.40;;;11.30;;
71646;SDS011;59706;45.634;11.704;2023-05-07T05:33:57;21.00;;;12.50;;
